createdAt,value
2017-12-06T00:01:11.406Z,22.98
2017-12-06T00:03:39.673Z,24.02
2017-12-06T00:06:07.917Z,21.08
2017-12-06T00:08:36.190Z,22.90
2017-12-06T00:11:04.439Z,20.46
2017-12-06T00:13:38.427Z,19.74
2017-12-06T00:16:06.678Z,24.02
2017-12-06T00:18:34.963Z,19.26
2017-12-06T00:21:03.242Z,21.48
2017-12-06T00:23:31.499Z,21.68
2017-12-06T00:25:59.770Z,20.84
2017-12-06T00:28:28.693Z,25.20
2017-12-06T00:30:57.010Z,21.62
2017-12-06T00:33:25.103Z,19.86
2017-12-06T00:35:54.261Z,20.96
2017-12-06T00:38:23.327Z,20.16
2017-12-06T00:40:51.607Z,25.00
2017-12-06T00:43:19.873Z,19.38
2017-12-06T00:45:48.127Z,21.22
2017-12-06T00:48:16.418Z,22.82
2017-12-06T00:50:44.666Z,21.78
2017-12-06T00:53:12.958Z,20.40
2017-12-06T00:55:41.212Z,20.60
2017-12-06T00:58:09.502Z,19.10
2017-12-06T01:00:45.224Z,20.96
2017-12-06T01:03:13.514Z,19.84
2017-12-06T01:05:41.762Z,22.16
2017-12-06T01:08:09.262Z,21.74
2017-12-06T01:10:38.214Z,19.34
2017-12-06T01:13:06.462Z,21.72
2017-12-06T01:15:34.747Z,20.66
2017-12-06T01:18:03.001Z,20.78
2017-12-06T01:20:31.297Z,23.94
2017-12-06T01:22:59.574Z,18.12
2017-12-06T01:25:29.058Z,23.54
2017-12-06T01:27:58.263Z,19.20
2017-12-06T01:30:26.968Z,23.62
2017-12-06T01:32:55.247Z,20.78
2017-12-06T01:35:23.495Z,25.86
2017-12-06T01:37:51.776Z,21.44
2017-12-06T01:40:20.054Z,21.42
2017-12-06T01:42:48.337Z,25.80
2017-12-06T01:45:16.603Z,26.52
2017-12-06T01:47:44.854Z,24.74
2017-12-06T01:50:13.125Z,20.12
2017-12-06T01:52:41.369Z,24.08
2017-12-06T01:55:09.650Z,23.68
2017-12-06T01:57:41.546Z,29.86
2017-12-06T02:00:09.822Z,29.94
2017-12-06T02:02:38.091Z,27.30
2017-12-06T02:05:06.375Z,23.24
2017-12-06T02:07:37.990Z,26.68
2017-12-06T02:10:06.259Z,30.28
2017-12-06T02:12:34.540Z,23.14
2017-12-06T02:15:02.790Z,26.62
2017-12-06T02:17:31.087Z,24.40
2017-12-06T02:19:59.339Z,27.52
2017-12-06T02:22:27.598Z,25.20
2017-12-06T02:24:55.874Z,28.18
2017-12-06T02:27:25.274Z,27.72
2017-12-06T02:29:53.558Z,27.12
2017-12-06T02:32:21.815Z,30.84
2017-12-06T02:34:50.059Z,29.10
2017-12-06T02:37:18.358Z,25.80
2017-12-06T02:39:59.158Z,29.54
2017-12-06T02:42:39.202Z,25.60
2017-12-06T02:45:33.186Z,31.70
2017-12-06T02:48:01.452Z,23.88
2017-12-06T02:50:28.945Z,29.24
2017-12-06T02:52:58.884Z,28.62
2017-12-06T02:55:30.711Z,28.76
2017-12-06T02:57:58.983Z,28.44
2017-12-06T03:00:28.210Z,27.14
2017-12-06T03:02:57.153Z,31.74
2017-12-06T03:05:25.411Z,35.30
2017-12-06T03:07:54.260Z,31.22
2017-12-06T03:10:22.770Z,31.50
2017-12-06T03:12:51.051Z,26.62
2017-12-06T03:15:19.315Z,30.32
2017-12-06T03:17:47.608Z,35.90
2017-12-06T03:20:15.896Z,37.32
2017-12-06T03:22:44.201Z,33.66
2017-12-06T03:25:12.467Z,29.64
2017-12-06T03:27:40.742Z,32.28
2017-12-06T03:30:09.040Z,25.40
2017-12-06T03:32:37.291Z,28.38
2017-12-06T03:35:05.554Z,33.80
2017-12-06T03:37:33.858Z,30.60
2017-12-06T03:40:02.119Z,35.64
2017-12-06T03:42:30.407Z,31.86
2017-12-06T03:44:58.691Z,31.74
2017-12-06T03:47:27.061Z,30.68
2017-12-06T03:49:55.356Z,33.32
2017-12-06T03:52:23.742Z,36.62
2017-12-06T03:54:52.026Z,32.66
2017-12-06T03:57:20.288Z,36.10
2017-12-06T03:59:48.575Z,30.64
2017-12-06T04:02:16.847Z,34.96
2017-12-06T04:04:45.135Z,29.04
2017-12-06T04:07:13.396Z,30.90
2017-12-06T04:09:41.698Z,27.96
2017-12-06T04:12:09.996Z,35.44
2017-12-06T04:14:38.259Z,28.02
2017-12-06T04:17:06.561Z,29.72
2017-12-06T04:19:34.829Z,31.04
2017-12-06T04:22:03.093Z,26.78
2017-12-06T04:24:31.384Z,27.42
2017-12-06T04:26:59.675Z,28.88
2017-12-06T04:29:29.198Z,31.08
2017-12-06T04:31:57.486Z,29.14
2017-12-06T04:34:25.753Z,26.06
2017-12-06T04:36:54.844Z,31.14
2017-12-06T04:39:24.743Z,30.50
2017-12-06T04:41:54.067Z,33.68
2017-12-06T04:44:23.134Z,30.92
2017-12-06T04:46:51.397Z,27.70
2017-12-06T04:49:18.924Z,26.12
2017-12-06T04:51:47.188Z,29.12
2017-12-06T04:54:15.479Z,29.48
2017-12-06T04:56:43.771Z,51.18
2017-12-06T04:59:12.023Z,28.56
2017-12-06T05:01:40.293Z,33.36
2017-12-06T05:04:12.098Z,30.80
2017-12-06T05:06:40.387Z,27.72
2017-12-06T05:09:08.642Z,27.52
2017-12-06T05:11:36.945Z,25.86
2017-12-06T05:14:05.222Z,23.04
2017-12-06T05:16:33.499Z,25.50
2017-12-06T05:19:01.787Z,28.86
2017-12-06T05:21:30.059Z,22.18
2017-12-06T05:23:59.406Z,22.78
2017-12-06T05:26:27.698Z,29.68
2017-12-06T05:28:55.965Z,29.92
2017-12-06T05:31:25.503Z,30.30
2017-12-06T05:33:55.014Z,25.46
2017-12-06T05:36:24.260Z,30.86
2017-12-06T05:38:53.306Z,26.72
2017-12-06T05:41:21.567Z,28.18
2017-12-06T05:43:49.855Z,29.44
2017-12-06T05:46:18.102Z,23.78
2017-12-06T05:48:46.386Z,24.42
2017-12-06T05:51:14.678Z,24.68
2017-12-06T05:53:42.926Z,22.18
2017-12-06T05:56:11.217Z,26.72
2017-12-06T05:58:39.474Z,22.94
2017-12-06T06:01:07.755Z,24.12
2017-12-06T06:03:36.011Z,23.40
2017-12-06T06:06:04.881Z,21.88
2017-12-06T06:08:34.565Z,21.52
2017-12-06T06:11:02.870Z,19.50
2017-12-06T06:13:31.125Z,20.90
2017-12-06T06:15:59.379Z,23.28
2017-12-06T06:18:27.667Z,24.40
2017-12-06T06:20:55.960Z,18.78
2017-12-06T06:23:25.471Z,18.50
2017-12-06T06:25:54.767Z,21.26
2017-12-06T06:28:24.563Z,21.52
2017-12-06T06:30:53.925Z,18.44
2017-12-06T06:33:22.155Z,19.30
2017-12-06T06:35:50.434Z,18.04
2017-12-06T06:38:18.733Z,18.56
2017-12-06T06:40:46.987Z,19.56
2017-12-06T06:43:15.250Z,17.46
2017-12-06T06:45:43.550Z,18.80
2017-12-06T06:48:11.813Z,21.74
2017-12-06T06:50:40.109Z,21.82
2017-12-06T06:53:08.367Z,25.62
2017-12-06T06:55:36.623Z,23.06
2017-12-06T06:58:04.907Z,18.60
2017-12-06T07:00:33.173Z,21.06
2017-12-06T07:03:01.454Z,17.44
2017-12-06T07:05:29.710Z,16.68
2017-12-06T07:08:00.951Z,16.76
2017-12-06T07:10:29.203Z,20.04
2017-12-06T07:12:58.388Z,19.42
2017-12-06T07:15:27.150Z,16.52
2017-12-06T07:17:55.395Z,17.26
2017-12-06T07:20:24.659Z,20.36
2017-12-06T07:22:54.085Z,18.80
2017-12-06T07:25:23.152Z,19.82
2017-12-06T07:27:51.445Z,20.32
2017-12-06T07:30:19.703Z,15.46
2017-12-06T07:32:47.988Z,16.22
2017-12-06T07:35:16.238Z,21.62
2017-12-06T07:37:44.527Z,14.12
2017-12-06T07:40:12.782Z,16.88
2017-12-06T07:42:41.094Z,17.26
2017-12-06T07:45:09.358Z,15.26
2017-12-06T07:47:37.616Z,15.18
2017-12-06T07:50:05.885Z,18.34
2017-12-06T07:52:34.170Z,13.04
2017-12-06T07:55:02.469Z,16.34
2017-12-06T07:57:30.732Z,18.26
2017-12-06T07:59:58.979Z,16.98
2017-12-06T08:02:27.946Z,22.04
2017-12-06T08:04:56.194Z,16.80
2017-12-06T08:07:24.979Z,16.96
2017-12-06T08:09:54.171Z,15.26
2017-12-06T08:12:23.174Z,18.30
2017-12-06T08:14:51.422Z,20.12
2017-12-06T08:17:30.760Z,18.26
2017-12-06T08:19:59.053Z,15.84
2017-12-06T08:22:28.718Z,14.32
2017-12-06T08:24:58.061Z,14.40
2017-12-06T08:27:34.313Z,18.42
2017-12-06T08:30:02.595Z,16.56
2017-12-06T08:32:37.441Z,13.16
2017-12-06T08:35:05.718Z,18.02
2017-12-06T08:37:39.401Z,14.16
2017-12-06T08:40:07.683Z,14.42
2017-12-06T08:42:36.759Z,15.82
2017-12-06T08:45:06.114Z,17.28
2017-12-06T08:47:34.375Z,19.04
2017-12-06T08:50:02.658Z,19.44
2017-12-06T08:52:30.922Z,16.98
2017-12-06T08:54:59.217Z,21.84
2017-12-06T08:57:27.264Z,17.16
2017-12-06T08:59:55.551Z,15.30
2017-12-06T09:02:23.846Z,14.64
2017-12-06T09:04:52.102Z,15.74
2017-12-06T09:07:20.395Z,15.16
2017-12-06T09:09:48.669Z,19.34
2017-12-06T09:12:16.950Z,13.84
2017-12-06T09:14:45.239Z,21.10
2017-12-06T09:17:13.492Z,14.82
2017-12-06T09:19:41.776Z,18.24
2017-12-06T09:22:10.076Z,20.98
2017-12-06T09:24:38.327Z,15.80
2017-12-06T09:27:07.443Z,17.64
2017-12-06T09:29:35.735Z,15.64
2017-12-06T09:32:04.055Z,16.42
2017-12-06T09:34:32.311Z,22.64
2017-12-06T09:37:00.581Z,16.40
2017-12-06T09:39:38.542Z,16.46
2017-12-06T09:42:06.800Z,16.94
2017-12-06T09:44:36.182Z,17.16
2017-12-06T09:47:04.440Z,19.26
2017-12-06T09:49:32.702Z,22.46
2017-12-06T09:52:00.987Z,16.88
2017-12-06T09:54:29.252Z,23.76
2017-12-06T09:56:58.399Z,14.92
2017-12-06T09:59:26.752Z,16.06
2017-12-06T10:01:55.006Z,15.34
2017-12-06T10:04:23.290Z,16.96
2017-12-06T10:06:51.563Z,16.58
2017-12-06T10:09:19.856Z,16.14
2017-12-06T10:11:48.121Z,13.08
2017-12-06T10:14:16.407Z,18.88
2017-12-06T10:16:44.658Z,14.66
2017-12-06T10:19:12.965Z,14.04
2017-12-06T10:21:41.219Z,12.96
2017-12-06T10:24:09.493Z,14.52
2017-12-06T10:26:37.030Z,12.36
2017-12-06T10:29:06.146Z,12.98
2017-12-06T10:31:35.649Z,16.32
2017-12-06T10:34:03.942Z,22.34
2017-12-06T10:36:32.213Z,16.16
2017-12-06T10:38:59.755Z,13.94
2017-12-06T10:41:29.033Z,15.40
2017-12-06T10:44:03.885Z,14.58
2017-12-06T10:46:32.167Z,16.62
2017-12-06T10:49:00.418Z,20.02
2017-12-06T10:51:30.081Z,12.10
2017-12-06T10:53:59.355Z,14.40
2017-12-06T10:56:28.508Z,16.32
2017-12-06T10:58:57.278Z,19.26
2017-12-06T11:01:25.535Z,16.72
2017-12-06T11:03:53.912Z,16.64
2017-12-06T11:06:22.174Z,14.34
2017-12-06T11:08:50.428Z,16.68
2017-12-06T11:11:18.716Z,16.66
2017-12-06T11:13:47.016Z,18.02
2017-12-06T11:16:15.305Z,15.72
2017-12-06T11:18:43.559Z,18.42
2017-12-06T11:21:11.847Z,19.48
2017-12-06T11:23:40.100Z,16.06
2017-12-06T11:26:08.394Z,18.04
2017-12-06T11:28:42.317Z,12.96
2017-12-06T11:31:10.621Z,15.64
2017-12-06T11:33:38.890Z,17.86
2017-12-06T11:36:07.197Z,13.20
2017-12-06T11:38:36.337Z,16.18
2017-12-06T11:41:05.517Z,19.96
2017-12-06T11:43:33.793Z,16.16
2017-12-06T11:46:02.079Z,17.64
2017-12-06T11:48:29.581Z,16.80
2017-12-06T11:50:57.859Z,20.66
2017-12-06T11:53:26.129Z,15.40
2017-12-06T11:55:54.399Z,21.10
2017-12-06T11:58:22.676Z,16.26
2017-12-06T12:00:50.958Z,19.92
2017-12-06T12:03:19.223Z,15.90
2017-12-06T12:05:47.489Z,17.68
2017-12-06T12:08:15.783Z,13.64
2017-12-06T12:10:44.077Z,18.92
2017-12-06T12:13:12.343Z,16.32
2017-12-06T12:15:40.595Z,18.76
2017-12-06T12:18:08.886Z,17.48
2017-12-06T12:20:37.155Z,19.34
2017-12-06T12:23:06.391Z,21.94
2017-12-06T12:25:35.491Z,17.44
2017-12-06T12:28:03.783Z,20.08
2017-12-06T12:30:32.067Z,15.16
2017-12-06T12:33:00.320Z,17.02
2017-12-06T12:35:29.731Z,14.44
2017-12-06T12:37:59.295Z,18.02
2017-12-06T12:40:28.407Z,17.76
2017-12-06T12:42:57.366Z,23.06
2017-12-06T12:45:25.615Z,18.56
2017-12-06T12:47:53.891Z,18.76
2017-12-06T12:50:22.159Z,17.00
2017-12-06T12:52:50.444Z,18.16
2017-12-06T12:55:18.708Z,20.34
2017-12-06T12:57:47.000Z,18.76
2017-12-06T13:00:15.260Z,18.92
2017-12-06T13:02:43.570Z,20.68
2017-12-06T13:05:11.842Z,16.76
2017-12-06T13:07:40.142Z,16.98
2017-12-06T13:10:08.394Z,21.16
2017-12-06T13:12:37.826Z,15.88
2017-12-06T13:15:06.791Z,20.56
2017-12-06T13:17:36.075Z,14.60
2017-12-06T13:20:04.371Z,16.50
2017-12-06T13:22:32.631Z,16.44
2017-12-06T13:25:00.932Z,29.00
2017-12-06T13:27:29.196Z,15.82
2017-12-06T13:29:58.246Z,16.64
2017-12-06T13:32:26.539Z,16.08
2017-12-06T13:34:54.035Z,15.14
2017-12-06T13:37:22.331Z,19.36
2017-12-06T13:39:50.607Z,15.58
2017-12-06T13:42:18.872Z,19.18
2017-12-06T13:44:47.176Z,15.44
2017-12-06T13:47:15.448Z,14.56
2017-12-06T13:49:43.704Z,17.56
2017-12-06T13:52:11.986Z,16.40
2017-12-06T13:54:40.289Z,15.54
2017-12-06T13:57:08.557Z,14.08
2017-12-06T13:59:36.852Z,21.82
2017-12-06T14:02:06.272Z,16.54
2017-12-06T14:04:36.315Z,14.76
2017-12-06T14:07:05.202Z,14.76
2017-12-06T14:09:33.529Z,13.96
2017-12-06T14:12:01.825Z,15.42
2017-12-06T14:14:30.083Z,16.34
2017-12-06T14:16:58.872Z,15.02
2017-12-06T14:19:28.196Z,16.18
2017-12-06T14:21:56.451Z,16.76
2017-12-06T14:24:24.741Z,19.16
2017-12-06T14:26:53.922Z,15.66
2017-12-06T14:29:22.211Z,24.54
2017-12-06T14:31:50.472Z,16.76
2017-12-06T14:34:18.756Z,15.58
2017-12-06T14:36:47.077Z,20.64
2017-12-06T14:39:15.361Z,17.72
2017-12-06T14:41:43.629Z,25.50
2017-12-06T14:44:11.938Z,19.68
2017-12-06T14:46:40.241Z,19.20
2017-12-06T14:49:08.545Z,14.34
2017-12-06T14:51:37.597Z,19.36
2017-12-06T14:54:05.894Z,15.86
2017-12-06T14:56:34.159Z,17.42
2017-12-06T14:59:02.448Z,18.36
2017-12-06T15:01:30.738Z,20.60
2017-12-06T15:03:59.035Z,20.40
2017-12-06T15:06:28.287Z,18.94
2017-12-06T15:08:56.574Z,19.26
2017-12-06T15:11:24.842Z,21.14
2017-12-06T15:13:53.120Z,21.56
2017-12-06T15:16:24.741Z,21.80
2017-12-06T15:18:53.043Z,17.80
2017-12-06T15:21:21.303Z,20.68
2017-12-06T15:23:49.596Z,17.98
2017-12-06T15:26:17.904Z,19.06
2017-12-06T15:29:03.009Z,21.90
2017-12-06T15:31:31.266Z,26.48
2017-12-06T15:34:12.945Z,23.24
2017-12-06T15:36:41.203Z,26.00
2017-12-06T15:39:09.491Z,27.34
2017-12-06T15:41:37.786Z,23.50
2017-12-06T15:44:14.374Z,24.72
2017-12-06T15:46:42.665Z,28.58
2017-12-06T15:49:10.955Z,26.16
2017-12-06T15:51:39.220Z,27.62
2017-12-06T15:54:07.517Z,21.48
2017-12-06T15:56:35.766Z,25.28
2017-12-06T15:59:04.064Z,26.64
2017-12-06T16:01:32.333Z,25.54
2017-12-06T16:04:00.615Z,25.06
2017-12-06T16:06:30.144Z,25.04
2017-12-06T16:08:59.605Z,27.64
2017-12-06T16:11:27.907Z,26.74
2017-12-06T16:13:56.207Z,29.18
2017-12-06T16:16:24.454Z,30.04
2017-12-06T16:18:52.715Z,23.68
2017-12-06T16:21:21.007Z,26.14
2017-12-06T16:23:49.255Z,27.50
2017-12-06T16:26:17.533Z,27.46
2017-12-06T16:28:45.832Z,22.48
2017-12-06T16:31:14.087Z,29.56
2017-12-06T16:33:42.375Z,27.86
2017-12-06T16:36:22.556Z,22.02
2017-12-06T16:38:50.835Z,30.04
2017-12-06T16:41:19.088Z,28.24
2017-12-06T16:43:47.388Z,24.28
2017-12-06T16:46:15.644Z,25.28
2017-12-06T16:48:43.898Z,21.58
2017-12-06T16:51:12.189Z,28.96
2017-12-06T16:53:40.456Z,33.68
2017-12-06T16:56:08.745Z,24.24
2017-12-06T16:58:37.017Z,27.56
2017-12-06T17:01:06.551Z,27.62
2017-12-06T17:03:35.522Z,28.38
2017-12-06T17:06:03.828Z,28.12
2017-12-06T17:08:32.087Z,28.40
2017-12-06T17:11:00.336Z,29.06
2017-12-06T17:13:29.091Z,25.58
2017-12-06T17:16:06.196Z,29.56
2017-12-06T17:18:35.719Z,28.50
2017-12-06T17:21:03.997Z,30.66
2017-12-06T17:23:32.291Z,30.34
2017-12-06T17:26:00.563Z,36.82
2017-12-06T17:28:37.563Z,29.48
2017-12-06T17:31:17.770Z,29.26
2017-12-06T17:33:46.060Z,29.84
2017-12-06T17:36:14.371Z,28.32
2017-12-06T17:38:42.647Z,28.98
2017-12-06T17:41:10.898Z,32.98
2017-12-06T17:43:39.183Z,24.18
2017-12-06T17:46:07.506Z,28.44
2017-12-06T17:48:35.790Z,32.28
2017-12-06T17:51:04.051Z,31.48
2017-12-06T17:53:32.311Z,29.54
2017-12-06T17:56:00.596Z,35.22
2017-12-06T17:58:29.711Z,32.42
2017-12-06T18:00:58.399Z,37.70
2017-12-06T18:03:26.688Z,24.54
2017-12-06T18:05:54.948Z,34.00
2017-12-06T18:08:23.240Z,30.12
2017-12-06T18:10:51.491Z,36.70
2017-12-06T18:13:19.771Z,32.52
2017-12-06T18:15:48.027Z,27.46
2017-12-06T18:18:16.336Z,26.26
2017-12-06T18:20:44.613Z,28.42
2017-12-06T18:23:12.890Z,32.62
2017-12-06T18:25:41.195Z,25.86
2017-12-06T18:28:09.495Z,28.92
2017-12-06T18:30:37.764Z,29.72
2017-12-06T18:33:06.975Z,35.72
2017-12-06T18:35:36.759Z,30.44
2017-12-06T18:38:06.212Z,30.42
2017-12-06T18:40:36.194Z,32.94
2017-12-06T18:43:06.046Z,29.32
2017-12-06T18:45:35.566Z,25.30
2017-12-06T18:48:03.832Z,27.62
2017-12-06T18:50:32.166Z,33.88
2017-12-06T18:53:00.471Z,33.48
2017-12-06T18:55:29.408Z,35.48
2017-12-06T18:57:58.448Z,27.10
2017-12-06T19:00:26.672Z,30.46
2017-12-06T19:02:54.966Z,34.22
2017-12-06T19:05:23.230Z,33.88
2017-12-06T19:07:51.515Z,36.12
2017-12-06T19:10:19.767Z,29.38
2017-12-06T19:12:48.051Z,31.20
2017-12-06T19:15:15.574Z,29.34
2017-12-06T19:17:43.836Z,30.44
2017-12-06T19:20:12.225Z,29.22
2017-12-06T19:22:40.475Z,32.12
2017-12-06T19:25:08.735Z,31.08
2017-12-06T19:27:37.304Z,32.72
2017-12-06T19:30:06.094Z,27.28
2017-12-06T19:32:34.405Z,31.74
2017-12-06T19:35:02.697Z,23.44
2017-12-06T19:37:30.956Z,26.02
2017-12-06T19:39:59.270Z,26.94
2017-12-06T19:42:28.627Z,32.78
2017-12-06T19:44:57.616Z,31.68
2017-12-06T19:47:25.866Z,27.68
2017-12-06T19:49:54.150Z,25.40
2017-12-06T19:52:22.403Z,28.80
2017-12-06T19:54:50.696Z,43.60
2017-12-06T19:57:18.947Z,26.20
2017-12-06T19:59:46.444Z,30.62
2017-12-06T20:02:14.737Z,25.12
2017-12-06T20:04:42.987Z,26.48
2017-12-06T20:07:11.279Z,22.34
2017-12-06T20:09:39.536Z,25.88
2017-12-06T20:12:07.819Z,26.84
2017-12-06T20:14:36.913Z,28.02
2017-12-06T20:17:05.837Z,26.58
2017-12-06T20:19:34.123Z,28.38
2017-12-06T20:22:02.382Z,22.72
2017-12-06T20:24:29.904Z,31.48
2017-12-06T20:26:58.535Z,25.50
2017-12-06T20:29:26.795Z,23.02
2017-12-06T20:31:55.064Z,25.80
2017-12-06T20:34:23.375Z,22.46
2017-12-06T20:36:51.626Z,21.76
2017-12-06T20:39:19.881Z,23.36
2017-12-06T20:41:48.169Z,23.10
2017-12-06T20:44:16.437Z,22.14
2017-12-06T20:46:44.725Z,26.20
2017-12-06T20:49:12.988Z,23.92
2017-12-06T20:51:41.239Z,20.78
2017-12-06T20:54:09.541Z,23.96
2017-12-06T20:56:37.491Z,21.68
2017-12-06T20:59:05.775Z,22.28
2017-12-06T21:01:34.035Z,21.22
2017-12-06T21:04:02.328Z,23.06
2017-12-06T21:06:30.589Z,22.18
2017-12-06T21:08:59.703Z,22.04
2017-12-06T21:11:28.997Z,19.88
2017-12-06T21:13:57.690Z,20.32
2017-12-06T21:16:25.971Z,19.46
2017-12-06T21:18:54.228Z,20.86
2017-12-06T21:21:22.517Z,19.68
2017-12-06T21:23:50.787Z,20.42
2017-12-06T21:26:19.075Z,22.00
2017-12-06T21:28:46.573Z,22.40
2017-12-06T21:31:14.883Z,21.88
2017-12-06T21:33:43.174Z,20.70
2017-12-06T21:36:11.437Z,25.86
2017-12-06T21:38:39.691Z,23.76
2017-12-06T21:41:07.974Z,18.66
2017-12-06T21:43:37.271Z,21.68
2017-12-06T21:46:06.468Z,20.94
2017-12-06T21:48:35.359Z,18.44
2017-12-06T21:51:09.491Z,20.10
2017-12-06T21:53:37.746Z,18.92
2017-12-06T21:56:07.095Z,18.38
2017-12-06T21:58:36.381Z,26.66
2017-12-06T22:01:05.427Z,19.34
2017-12-06T22:03:33.682Z,22.22
2017-12-06T22:06:01.972Z,19.40
2017-12-06T22:08:30.238Z,21.94
2017-12-06T22:10:59.799Z,24.64
2017-12-06T22:13:28.920Z,21.46
2017-12-06T22:15:57.690Z,19.48
2017-12-06T22:18:25.945Z,18.12
2017-12-06T22:20:54.198Z,19.70
2017-12-06T22:23:22.493Z,20.76
2017-12-06T22:25:50.742Z,17.12
2017-12-06T22:28:19.022Z,16.60
2017-12-06T22:30:47.278Z,18.44
2017-12-06T22:33:15.575Z,18.44
2017-12-06T22:35:43.827Z,18.48
2017-12-06T22:38:12.096Z,19.42
2017-12-06T22:40:40.389Z,20.40
2017-12-06T22:43:08.694Z,16.50
2017-12-06T22:45:36.957Z,24.08
2017-12-06T22:48:06.539Z,17.92
2017-12-06T22:50:34.811Z,15.10
2017-12-06T22:53:03.067Z,13.66
2017-12-06T22:55:31.362Z,14.64
2017-12-06T22:57:59.613Z,15.64
2017-12-06T23:00:29.281Z,14.30
2017-12-06T23:02:58.590Z,15.48
2017-12-06T23:05:26.894Z,16.52
2017-12-06T23:07:55.146Z,21.54
2017-12-06T23:10:23.444Z,14.18
2017-12-06T23:12:51.712Z,15.30
2017-12-06T23:15:20.012Z,15.42
2017-12-06T23:17:48.275Z,14.16
2017-12-06T23:20:17.523Z,12.22
2017-12-06T23:22:45.770Z,15.72
2017-12-06T23:25:14.056Z,12.96
2017-12-06T23:27:42.306Z,13.66
2017-12-06T23:30:10.590Z,13.84
2017-12-06T23:32:38.901Z,10.04
2017-12-06T23:35:07.165Z,12.24
2017-12-06T23:37:36.324Z,12.48
2017-12-06T23:40:05.217Z,15.06
2017-12-06T23:42:33.466Z,11.86
2017-12-06T23:45:01.709Z,11.30
2017-12-06T23:47:29.990Z,13.24
2017-12-06T23:49:58.257Z,12.30
2017-12-06T23:52:30.265Z,12.56
2017-12-06T23:54:59.151Z,15.06
2017-12-06T23:57:27.793Z,12.54
2017-12-06T23:59:56.074Z,14.46
